Elberton, GA

10:54 PM EDT on October 15, 2019 (GMT -0400)
Hard Cash | | Change Station

Elev 719 ft 34.19 °N, 82.97 °W | Updated 34 seconds ago

Overcast
Overcast
62.4 °F
Feels Like 62.4 °F
N
0
Wind Variable Wind from North
Gusts 0.0 mph

Today
High -- | Low -- °F
--% Chance of Precip.
Yesterday
High -- | Low -- °F
Precip. -- in
Pressure 29.95 in
Visibility 7.0 miles
Clouds Overcast 900 ft
Dew Point 60 °F
Humidity 92%
Rainfall 0.02 in
Snow Depth Not available.
7:36 AM 6:57 PM
Waning Gibbous, 95% visible
METAR KIIY 160235Z AUTO 07003KT 7SM DZ OVC009 16/16 A2995 RMK AO2 TSNO
Pressure 29.95 in
Visibility 7.0 miles
Clouds Overcast 900 ft
Dew Point 60 °F
Humidity 92%
Rainfall 0.02 in
Snow Depth Not available.
7:36 AM 6:57 PM
Waning Gibbous, 95% visible
METAR KIIY 160235Z AUTO 07003KT 7SM DZ OVC009 16/16 A2995 RMK AO2 TSNO

Get Severe Weather Alerts

Thanks for signing up!

Be on the lookout for a verification email in your inbox.

You'll start receiving the daily forecast at 6 AM.

×

10-Day Weather Forecast

Almanac

Astronomy

Oct. 15, 2019 Rise Set
Actual Time
Civil Twilight
Nautical Twilight
Astronomical Twilight
Moon
Length of Visible Light
Length of Day
Tomorrow will be .
, % of the Moon is Illuminated

Today's Extremes

State Highs State Lows

Community

WunderPhotos

Category 6

Welcome to Category 6. This is the collective home for Weather Underground's featured writeups by Dr. Jeff Masters (right), Bob Henson (left), Chris Burt, and other regular contributors.

Nearby

Air Quality

  Air Quality AQ Index Pollutant
Not available.

Snow Depth

Station Depth Elevation

Earthquake Activity

City Distance Mag. Time & Date
Minimum magnitude displayed is 2.5.

Coastal Water Temperatures

Place Temperature

Stations

Nearby Weather Stations

Station Location Temp. Windchill Dew Point Humidity Wind Precip. Elev Updated Type
                   

Watches & Warnings

There are currently no watches in effect.